Time;durP1;ratioP1;P1;durP2;ratioP2;P2;SDS_P1;SDS_P2;PMS_P1;PMS_P2;Temp;Humidity;BMP_temperature;BMP_pressure;BME280_temperature;BME280_humidity;BME280_pressure;Samples;Min_cycle;Max_cycle;Signal;HPM_P1;HPM_P2
2023/08/01 00:00:08;;;;;;;0.08;0.08;;;16.30;91.60;;;;;;5010892;28;20610;-76
2023/08/01 00:02:33;;;;;;;0.85;0.45;;;16.30;91.70;;;;;;5010567;28;20057;-76
2023/08/01 00:04:59;;;;;;;0.00;0.00;;;16.30;91.70;;;;;;5010061;28;20038;-74
2023/08/01 00:07:27;;;;;;;0.10;0.10;;;16.30;91.80;;;;;;5009421;28;20554;-74
2023/08/01 00:09:53;;;;;;;0.00;0.00;;;16.30;91.80;;;;;;5010182;28;20042;-74
2023/08/01 00:12:18;;;;;;;0.00;0.00;;;16.30;91.80;;;;;;5010943;28;20453;-74
2023/08/01 00:14:44;;;;;;;0.00;0.00;;;16.30;91.80;;;;;;5009399;28;20042;-74
2023/08/01 00:17:10;;;;;;;0.00;0.00;;;16.40;91.80;;;;;;5010761;28;20125;-74
2023/08/01 00:19:35;;;;;;;0.00;0.00;;;16.30;91.80;;;;;;5009988;28;20054;-74
2023/08/01 00:22:01;;;;;;;0.00;0.00;;;16.30;91.90;;;;;;5010629;28;20072;-74
2023/08/01 00:24:27;;;;;;;0.00;0.00;;;16.30;91.80;;;;;;5015764;28;20490;-74
2023/08/01 00:26:55;;;;;;;0.00;0.00;;;16.30;91.70;;;;;;5024348;28;20080;-76
2023/08/01 00:29:21;;;;;;;0.00;0.00;;;16.30;91.70;;;;;;5010173;28;20113;-75
2023/08/01 00:31:46;;;;;;;0.00;0.00;;;16.30;91.60;;;;;;5010600;28;20061;-76
2023/08/01 00:34:12;;;;;;;0.00;0.00;;;16.20;91.40;;;;;;5009768;28;20125;-76
2023/08/01 00:36:38;;;;;;;0.00;0.00;;;16.10;91.40;;;;;;5008141;28;20049;-76
2023/08/01 00:39:03;;;;;;;0.03;0.03;;;16.10;91.40;;;;;;5010190;28;20463;-75
2023/08/01 00:41:29;;;;;;;0.00;0.00;;;16.10;91.30;;;;;;5010154;28;20387;-75
2023/08/01 00:43:54;;;;;;;0.00;0.00;;;16.10;91.20;;;;;;5009997;28;20111;-75
2023/08/01 00:46:20;;;;;;;0.00;0.00;;;16.10;91.00;;;;;;5010261;28;20054;-75
2023/08/01 00:48:46;;;;;;;0.00;0.00;;;16.10;91.00;;;;;;5009841;28;20042;-75
2023/08/01 00:51:12;;;;;;;0.00;0.00;;;16.10;91.00;;;;;;5009429;28;20160;-75
2023/08/01 00:53:39;;;;;;;0.00;0.00;;;16.00;90.90;;;;;;5009906;28;20066;-75
2023/08/01 00:56:04;;;;;;;0.00;0.00;;;16.00;90.90;;;;;;5009745;28;20129;-75
2023/08/01 00:58:30;;;;;;;0.10;0.10;;;16.00;90.90;;;;;;5009591;28;20137;-75
2023/08/01 01:00:56;;;;;;;0.10;0.10;;;16.00;90.80;;;;;;5008944;28;20125;-75
2023/08/01 01:03:23;;;;;;;0.00;0.00;;;16.00;90.80;;;;;;5009313;28;20065;-75
2023/08/01 01:06:15;;;;;;;0.00;0.00;;;16.00;90.80;;;;;;5009288;28;20052;-75
2023/08/01 01:08:41;;;;;;;0.00;0.00;;;16.00;90.80;;;;;;5004974;28;20046;-75
2023/08/01 01:11:07;;;;;;;0.00;0.00;;;16.00;90.80;;;;;;5005389;28;20046;-75
2023/08/01 01:13:33;;;;;;;0.00;0.00;;;16.00;90.70;;;;;;5008592;28;20499;-75
2023/08/01 01:15:59;;;;;;;0.00;0.00;;;16.10;90.70;;;;;;5009331;28;20049;-75
2023/08/01 01:18:24;;;;;;;0.00;0.00;;;16.10;90.70;;;;;;5009589;28;20084;-75
2023/08/01 01:20:50;;;;;;;0.00;0.00;;;16.10;90.70;;;;;;5008432;28;20099;-75
2023/08/01 01:23:18;;;;;;;0.00;0.00;;;16.00;90.70;;;;;;5004701;28;20046;-75
2023/08/01 01:25:46;;;;;;;0.00;0.00;;;16.10;90.70;;;;;;5008699;28;20092;-75
2023/08/01 01:28:13;;;;;;;0.00;0.00;;;16.10;90.70;;;;;;5008633;28;20056;-75
2023/08/01 01:30:41;;;;;;;0.00;0.00;;;16.10;90.60;;;;;;5009148;28;20480;-75
2023/08/01 01:33:07;;;;;;;0.00;0.00;;;16.00;90.60;;;;;;5007688;28;20572;-75
2023/08/01 01:35:35;;;;;;;0.00;0.00;;;16.00;90.60;;;;;;5009160;28;20046;-75
2023/08/01 01:38:03;;;;;;;0.00;0.00;;;16.10;90.60;;;;;;5009261;28;20086;-75
2023/08/01 01:40:33;;;;;;;0.00;0.00;;;16.00;90.50;;;;;;5008956;28;20056;-75
2023/08/01 01:42:59;;;;;;;0.00;0.00;;;16.10;90.50;;;;;;5009720;28;20085;-75
2023/08/01 01:45:25;;;;;;;0.00;0.00;;;16.10;90.50;;;;;;5008390;28;20121;-75
2023/08/01 01:47:50;;;;;;;0.00;0.00;;;16.00;90.50;;;;;;5009210;28;20124;-75
2023/08/01 01:50:16;;;;;;;0.00;0.00;;;16.00;90.50;;;;;;5007445;28;20057;-75
2023/08/01 01:52:41;;;;;;;0.00;0.00;;;16.00;90.50;;;;;;5009260;28;20052;-75
2023/08/01 01:55:07;;;;;;;0.00;0.00;;;16.00;90.50;;;;;;5009419;28;20042;-75
2023/08/01 01:57:34;;;;;;;0.10;0.10;;;16.00;90.50;;;;;;5009056;28;20073;-75
2023/08/01 02:00:00;;;;;;;0.00;0.00;;;16.00;90.40;;;;;;4998019;28;20104;-75
2023/08/01 02:02:25;;;;;;;0.00;0.00;;;16.00;90.50;;;;;;4999805;28;20042;-75
2023/08/01 02:04:51;;;;;;;0.00;0.00;;;16.10;90.50;;;;;;5000408;28;20052;-76
2023/08/01 02:07:17;;;;;;;0.05;0.05;;;16.00;90.50;;;;;;4995379;28;20494;-75
2023/08/01 02:09:43;;;;;;;0.25;0.25;;;16.10;90.60;;;;;;5008155;28;20050;-74
2023/08/01 02:12:09;;;;;;;0.00;0.00;;;16.10;90.60;;;;;;5009009;28;20052;-74
2023/08/01 02:14:36;;;;;;;0.00;0.00;;;16.20;90.60;;;;;;5008887;28;20120;-74
2023/08/01 02:17:01;;;;;;;0.00;0.00;;;16.20;90.60;;;;;;5011380;28;20133;-75
2023/08/01 02:19:27;;;;;;;0.10;0.10;;;16.20;90.70;;;;;;5010319;28;20141;-74
2023/08/01 02:21:54;;;;;;;0.00;0.00;;;16.20;90.80;;;;;;5009339;28;20469;-74
2023/08/01 02:24:19;;;;;;;0.30;0.30;;;16.20;90.90;;;;;;5006731;28;20046;-74
2023/08/01 02:26:45;;;;;;;0.00;0.00;;;16.30;90.70;;;;;;5016247;28;20048;-74
2023/08/01 02:29:10;;;;;;;0.10;0.10;;;16.20;90.60;;;;;;5013162;28;20447;-75
2023/08/01 02:31:36;;;;;;;0.00;0.00;;;16.10;90.80;;;;;;5009157;28;20084;-74
2023/08/01 02:34:01;;;;;;;0.00;0.00;;;16.00;91.00;;;;;;4996021;28;20097;-74
2023/08/01 02:36:27;;;;;;;0.05;0.05;;;16.00;91.20;;;;;;5013081;28;20057;-74
2023/08/01 02:38:53;;;;;;;0.00;0.00;;;15.90;91.40;;;;;;5013062;28;20521;-75
2023/08/01 02:41:18;;;;;;;0.00;0.00;;;15.80;91.50;;;;;;5012321;28;20045;-75
2023/08/01 02:43:44;;;;;;;0.00;0.00;;;15.80;91.80;;;;;;5011497;28;20450;-74
2023/08/01 02:46:10;;;;;;;0.00;0.00;;;15.70;91.90;;;;;;5011929;28;20038;-75
2023/08/01 02:48:35;;;;;;;0.00;0.00;;;15.70;92.00;;;;;;5012359;28;20053;-75
2023/08/01 02:51:01;;;;;;;0.00;0.00;;;15.60;92.10;;;;;;5012047;28;20038;-74
2023/08/01 02:53:27;;;;;;;0.00;0.00;;;15.60;92.10;;;;;;5011658;28;20045;-75
2023/08/01 02:55:53;;;;;;;0.10;0.10;;;15.60;92.10;;;;;;5011121;28;20137;-74
2023/08/01 02:58:18;;;;;;;0.00;0.00;;;15.60;92.10;;;;;;5011821;28;20050;-75
2023/08/01 03:00:44;;;;;;;0.00;0.00;;;15.60;92.20;;;;;;5010448;28;20054;-74
2023/08/01 03:03:10;;;;;;;0.00;0.00;;;15.50;92.20;;;;;;5010122;28;20050;-75
2023/08/01 03:05:37;;;;;;;0.00;0.00;;;15.50;92.30;;;;;;5011432;28;20056;-74
2023/08/01 03:08:03;;;;;;;6.47;0.95;;;15.50;92.30;;;;;;5011476;28;20046;-74
2023/08/01 03:10:29;;;;;;;0.00;0.00;;;15.50;92.30;;;;;;5004785;28;20064;-74
2023/08/01 03:12:55;;;;;;;0.00;0.00;;;15.40;92.20;;;;;;5011957;28;20180;-74
2023/08/01 03:15:20;;;;;;;0.00;0.00;;;15.40;92.20;;;;;;5010629;28;20398;-75
2023/08/01 03:17:46;;;;;;;0.00;0.00;;;15.40;92.30;;;;;;5011839;28;20056;-75
2023/08/01 03:20:12;;;;;;;0.00;0.00;;;15.50;92.20;;;;;;5010304;28;20046;-75
2023/08/01 03:22:41;;;;;;;0.00;0.00;;;15.40;92.30;;;;;;5010619;28;20076;-75
2023/08/01 03:25:07;;;;;;;0.00;0.00;;;15.40;92.20;;;;;;5007352;28;20601;-75
2023/08/01 03:27:36;;;;;;;0.00;0.00;;;15.40;92.20;;;;;;4992289;28;20050;-75
2023/08/01 03:30:04;;;;;;;0.00;0.00;;;15.40;92.20;;;;;;4990708;28;20121;-75
2023/08/01 03:32:30;;;;;;;0.00;0.00;;;15.40;92.10;;;;;;5010660;28;20490;-75
2023/08/01 03:34:55;;;;;;;0.10;0.10;;;15.50;92.10;;;;;;5009751;28;20045;-75
2023/08/01 03:37:21;;;;;;;0.00;0.00;;;15.40;92.10;;;;;;5010806;28;20054;-75
2023/08/01 03:39:46;;;;;;;0.00;0.00;;;15.40;92.00;;;;;;5009932;28;20413;-74
2023/08/01 03:42:12;;;;;;;0.00;0.00;;;15.40;92.00;;;;;;5009545;28;20771;-75
2023/08/01 03:44:37;;;;;;;0.00;0.00;;;15.40;92.00;;;;;;5010575;28;20045;-75
2023/08/01 03:47:03;;;;;;;0.00;0.00;;;15.40;92.00;;;;;;5010201;28;20042;-75
2023/08/01 03:49:29;;;;;;;0.00;0.00;;;15.40;91.90;;;;;;5011351;28;20136;-75
2023/08/01 03:51:54;;;;;;;0.00;0.00;;;15.40;91.90;;;;;;5010055;28;20081;-75
2023/08/01 03:54:20;;;;;;;0.00;0.00;;;15.40;91.90;;;;;;5010983;28;20046;-75
2023/08/01 03:56:45;;;;;;;0.00;0.00;;;15.40;91.80;;;;;;5010659;28;20173;-75
2023/08/01 03:59:15;;;;;;;0.00;0.00;;;15.40;91.80;;;;;;5010946;28;20045;-74
2023/08/01 04:01:41;;;;;;;0.00;0.00;;;15.40;91.90;;;;;;5008214;28;20398;-75
2023/08/01 04:04:09;;;;;;;0.00;0.00;;;15.40;91.80;;;;;;5008232;28;20060;-75
2023/08/01 04:06:34;;;;;;;0.00;0.00;;;15.50;91.80;;;;;;5009987;28;20049;-75
2023/08/01 04:09:00;;;;;;;0.00;0.00;;;15.50;91.80;;;;;;5009806;28;20068;-74
2023/08/01 04:11:26;;;;;;;0.10;0.10;;;15.50;91.80;;;;;;4992909;28;20038;-75
2023/08/01 04:13:52;;;;;;;0.00;0.00;;;15.50;91.80;;;;;;5010412;28;20129;-75
2023/08/01 04:16:18;;;;;;;0.10;0.10;;;15.50;91.80;;;;;;5009471;28;20133;-75
2023/08/01 04:18:43;;;;;;;0.00;0.00;;;15.50;91.80;;;;;;5010435;28;20049;-75
2023/08/01 04:21:09;;;;;;;0.03;0.03;;;15.50;91.80;;;;;;5008703;28;20152;-75
2023/08/01 04:23:35;;;;;;;0.10;0.10;;;15.50;91.80;;;;;;5008897;28;20054;-75
2023/08/01 04:26:00;;;;;;;0.00;0.00;;;15.60;91.80;;;;;;5009343;28;20073;-74
2023/08/01 04:28:26;;;;;;;0.00;0.00;;;15.60;91.80;;;;;;5010549;28;20050;-74
2023/08/01 04:30:52;;;;;;;0.00;0.00;;;15.60;91.80;;;;;;5010335;28;20044;-75
2023/08/01 04:33:18;;;;;;;0.00;0.00;;;15.60;91.80;;;;;;5009808;28;20780;-75
2023/08/01 04:35:44;;;;;;;0.10;0.10;;;15.60;91.80;;;;;;5010249;28;20054;-75
2023/08/01 04:38:10;;;;;;;0.00;0.00;;;15.60;91.90;;;;;;5010394;28;20048;-75
2023/08/01 04:40:36;;;;;;;0.00;0.00;;;15.60;91.90;;;;;;5009223;28;20479;-74
2023/08/01 04:43:02;;;;;;;0.00;0.00;;;15.70;92.10;;;;;;5009904;28;20052;-75
2023/08/01 04:45:28;;;;;;;0.00;0.00;;;15.70;92.30;;;;;;5009893;28;20076;-75
2023/08/01 04:47:53;;;;;;;0.00;0.00;;;15.70;92.30;;;;;;5009850;28;20042;-74
2023/08/01 04:50:19;;;;;;;0.20;0.20;;;15.70;92.40;;;;;;5008709;28;20042;-74
2023/08/01 04:52:44;;;;;;;0.00;0.00;;;15.70;92.30;;;;;;5008504;28;20045;-75
2023/08/01 04:55:10;;;;;;;0.00;0.00;;;15.70;92.20;;;;;;5009588;28;20079;-75
2023/08/01 04:57:35;;;;;;;0.00;0.00;;;15.70;92.20;;;;;;4997711;28;20069;-75
2023/08/01 05:00:02;;;;;;;0.00;0.00;;;15.70;92.30;;;;;;4989481;28;20050;-74
2023/08/01 05:02:28;;;;;;;0.10;0.10;;;15.70;92.40;;;;;;5005790;28;20050;-73
2023/08/01 05:04:53;;;;;;;0.03;0.03;;;15.70;92.40;;;;;;5000222;28;20566;-74
2023/08/01 05:07:19;;;;;;;0.00;0.00;;;15.60;92.30;;;;;;5008181;28;20092;-73
2023/08/01 05:09:45;;;;;;;0.00;0.00;;;15.60;92.40;;;;;;5009682;28;20049;-73
2023/08/01 05:12:10;;;;;;;0.00;0.00;;;15.60;92.30;;;;;;5009512;28;21109;-74
2023/08/01 05:14:36;;;;;;;0.00;0.00;;;15.60;92.40;;;;;;5009699;28;20406;-73
2023/08/01 05:17:01;;;;;;;0.00;0.00;;;15.60;92.50;;;;;;4979681;28;20042;-73
2023/08/01 05:19:27;;;;;;;0.00;0.00;;;15.60;92.60;;;;;;5005485;28;20041;-73
2023/08/01 05:21:52;;;;;;;0.10;0.10;;;15.60;92.60;;;;;;5008826;28;20058;-73
2023/08/01 05:24:18;;;;;;;0.00;0.00;;;15.60;92.80;;;;;;5004524;28;20054;-73
2023/08/01 05:26:43;;;;;;;0.00;0.00;;;15.60;92.90;;;;;;5009278;28;20120;-74
2023/08/01 05:29:09;;;;;;;0.00;0.00;;;15.60;92.80;;;;;;5008920;28;20042;-73
2023/08/01 05:31:35;;;;;;;0.00;0.00;;;15.60;92.70;;;;;;5009373;28;20045;-74
2023/08/01 05:34:00;;;;;;;0.00;0.00;;;15.60;92.80;;;;;;5009337;28;20120;-73
2023/08/01 05:36:26;;;;;;;0.00;0.00;;;15.60;92.80;;;;;;5009177;28;20041;-73
2023/08/01 05:38:51;;;;;;;0.00;0.00;;;15.60;92.70;;;;;;5009721;28;20054;-74
2023/08/01 05:41:17;;;;;;;0.00;0.00;;;15.60;92.80;;;;;;5004457;28;20045;-74
2023/08/01 05:43:42;;;;;;;0.00;0.00;;;15.60;93.00;;;;;;5008883;28;20079;-73
2023/08/01 05:46:08;;;;;;;0.00;0.00;;;15.60;92.90;;;;;;5009278;28;20510;-72
2023/08/01 05:48:34;;;;;;;0.63;0.63;;;15.60;92.90;;;;;;5008584;28;20077;-73
2023/08/01 05:50:59;;;;;;;1.35;0.70;;;15.60;92.80;;;;;;5008945;28;20053;-73
2023/08/01 05:53:25;;;;;;;0.00;0.00;;;15.50;92.60;;;;;;5004732;28;20073;-74
2023/08/01 05:55:50;;;;;;;0.00;0.00;;;15.50;92.70;;;;;;5006445;28;20076;-74
2023/08/01 05:58:16;;;;;;;0.00;0.00;;;15.40;92.50;;;;;;4990460;28;20475;-73
2023/08/01 06:00:42;;;;;;;0.00;0.00;;;15.30;92.40;;;;;;4979076;28;20054;-74
2023/08/01 06:03:07;;;;;;;0.00;0.00;;;15.40;92.40;;;;;;5005948;28;20041;-74
2023/08/01 06:05:33;;;;;;;0.00;0.00;;;15.40;92.40;;;;;;5006447;28;20046;-74
2023/08/01 06:07:58;;;;;;;0.00;0.00;;;15.40;92.40;;;;;;5008504;28;20050;-74
2023/08/01 06:10:24;;;;;;;0.47;0.47;;;15.50;92.50;;;;;;4998310;28;20073;-74
2023/08/01 06:12:50;;;;;;;0.00;0.00;;;15.50;92.40;;;;;;5000807;28;20121;-73
2023/08/01 06:15:15;;;;;;;0.00;0.00;;;15.60;92.50;;;;;;4995156;28;20078;-71
2023/08/01 06:17:41;;;;;;;0.03;0.03;;;15.60;92.50;;;;;;5003078;28;20141;-74
2023/08/01 06:20:07;;;;;;;0.10;0.10;;;15.60;92.40;;;;;;5006710;28;20124;-73
2023/08/01 06:22:33;;;;;;;0.00;0.00;;;15.60;92.40;;;;;;4989632;28;20050;-74
2023/08/01 06:24:58;;;;;;;0.00;0.00;;;15.60;92.30;;;;;;5003815;28;20049;-74
2023/08/01 06:27:25;;;;;;;0.00;0.00;;;15.60;92.40;;;;;;4995277;28;20054;-74
2023/08/01 06:29:50;;;;;;;0.00;0.00;;;15.70;92.40;;;;;;5011761;28;20042;-74
2023/08/01 06:32:16;;;;;;;0.00;0.00;;;15.70;92.40;;;;;;5001453;28;20054;-74
2023/08/01 06:34:41;;;;;;;0.00;0.00;;;15.70;92.40;;;;;;5011512;28;20056;-74
2023/08/01 06:37:07;;;;;;;0.00;0.00;;;15.70;92.40;;;;;;5011139;28;20145;-74
2023/08/01 06:39:32;;;;;;;0.00;0.00;;;15.70;92.40;;;;;;5010318;28;20050;-74
2023/08/01 06:41:58;;;;;;;0.10;0.10;;;15.70;92.30;;;;;;5012190;28;20562;-74
2023/08/01 06:44:23;;;;;;;0.00;0.00;;;15.80;92.20;;;;;;5009643;28;20589;-75
2023/08/01 06:46:49;;;;;;;0.00;0.00;;;15.80;92.30;;;;;;5011777;28;20133;-74
2023/08/01 06:49:14;;;;;;;0.00;0.00;;;15.80;92.30;;;;;;5011045;28;20060;-74
2023/08/01 06:51:41;;;;;;;0.08;0.08;;;15.90;92.40;;;;;;5012170;28;20050;-72
2023/08/01 06:54:07;;;;;;;0.00;0.00;;;15.90;92.40;;;;;;5012553;28;20061;-74
2023/08/01 06:56:33;;;;;;;0.10;0.10;;;15.80;92.30;;;;;;5012720;28;20054;-73
2023/08/01 06:58:58;;;;;;;0.10;0.10;;;15.90;92.40;;;;;;5009452;28;20502;-74
2023/08/01 07:01:24;;;;;;;0.00;0.00;;;15.90;92.40;;;;;;5010328;28;20470;-74
2023/08/01 07:03:51;;;;;;;0.00;0.00;;;15.90;92.40;;;;;;5007964;28;20462;-74
2023/08/01 07:06:17;;;;;;;0.00;0.00;;;15.80;92.40;;;;;;5008915;28;20515;-73
2023/08/01 07:08:43;;;;;;;0.00;0.00;;;15.90;92.50;;;;;;5010891;28;20073;-76
2023/08/01 07:11:08;;;;;;;1.55;0.57;;;15.90;92.60;;;;;;5006323;28;20054;-75
2023/08/01 07:13:34;;;;;;;0.00;0.00;;;15.90;92.80;;;;;;5008034;28;20772;-77
2023/08/01 07:16:00;;;;;;;0.00;0.00;;;15.90;92.80;;;;;;4995896;28;20062;-76
2023/08/01 07:18:25;;;;;;;0.00;0.00;;;15.90;92.90;;;;;;4990660;28;20042;-76
2023/08/01 07:21:01;;;;;;;0.00;0.00;;;15.90;92.90;;;;;;4990095;28;20050;-76
2023/08/01 07:23:27;;;;;;;0.20;0.20;;;15.90;93.00;;;;;;5004376;28;20047;-77
2023/08/01 07:25:52;;;;;;;0.00;0.00;;;15.90;93.10;;;;;;5008334;28;20112;-75
2023/08/01 07:28:18;;;;;;;0.00;0.00;;;15.90;93.00;;;;;;5009876;28;20152;-73
2023/08/01 07:30:43;;;;;;;0.00;0.00;;;15.90;92.80;;;;;;5003954;28;20515;-73
2023/08/01 07:33:09;;;;;;;0.00;0.00;;;15.80;92.20;;;;;;5009583;28;20076;-73
2023/08/01 07:35:35;;;;;;;0.00;0.00;;;15.70;92.20;;;;;;5011494;28;20812;-73
2023/08/01 07:38:00;;;;;;;0.00;0.00;;;15.60;92.20;;;;;;5011249;28;20053;-74
2023/08/01 07:40:26;;;;;;;0.00;0.00;;;15.60;92.40;;;;;;5011506;28;20079;-73
2023/08/01 07:42:51;;;;;;;0.00;0.00;;;15.70;92.50;;;;;;5010304;28;20045;-74
2023/08/01 07:45:19;;;;;;;0.00;0.00;;;15.70;92.70;;;;;;5009823;28;20081;-74
2023/08/01 07:47:44;;;;;;;0.00;0.00;;;15.60;92.80;;;;;;5010969;28;20604;-73
2023/08/01 07:50:10;;;;;;;0.00;0.00;;;15.60;92.90;;;;;;5011426;28;20050;-74
2023/08/01 07:52:36;;;;;;;0.00;0.00;;;15.60;93.10;;;;;;5011080;28;20042;-74
2023/08/01 07:55:02;;;;;;;0.85;0.85;;;15.70;93.20;;;;;;5009617;28;20114;-73
2023/08/01 07:57:27;;;;;;;0.10;0.10;;;15.70;93.20;;;;;;5010935;28;20062;-73
2023/08/01 07:59:53;;;;;;;0.00;0.00;;;15.70;93.40;;;;;;5011192;28;20042;-73
2023/08/01 08:02:18;;;;;;;0.00;0.00;;;15.70;93.40;;;;;;4989932;28;20577;-73
2023/08/01 08:04:44;;;;;;;0.00;0.00;;;15.70;93.30;;;;;;4980527;28;20132;-73
2023/08/01 08:07:09;;;;;;;1.00;0.52;;;15.70;93.50;;;;;;5007848;28;20037;-72
2023/08/01 08:09:35;;;;;;;0.68;0.57;;;15.70;93.30;;;;;;4999886;28;20034;-74
2023/08/01 08:12:00;;;;;;;0.00;0.00;;;15.70;93.50;;;;;;5006827;28;20046;-72
2023/08/01 08:14:26;;;;;;;0.00;0.00;;;15.70;93.50;;;;;;5006840;28;20122;-72
2023/08/01 08:16:51;;;;;;;0.05;0.05;;;15.70;93.60;;;;;;5008129;28;20048;-72
2023/08/01 08:19:17;;;;;;;0.00;0.00;;;15.80;93.60;;;;;;5007644;28;20049;-72
2023/08/01 08:21:43;;;;;;;0.47;0.47;;;15.80;93.60;;;;;;5008585;28;20556;-72
2023/08/01 08:24:08;;;;;;;0.00;0.00;;;15.70;93.60;;;;;;5007379;28;20084;-72
2023/08/01 08:26:37;;;;;;;0.00;0.00;;;15.60;93.90;;;;;;5005735;28;20057;-72
2023/08/01 08:29:04;;;;;;;0.00;0.00;;;15.60;94.00;;;;;;5007442;28;20066;-71
2023/08/01 08:31:30;;;;;;;0.00;0.00;;;15.60;94.00;;;;;;5006897;28;20041;-72
2023/08/01 08:33:56;;;;;;;0.10;0.10;;;15.70;94.00;;;;;;5006585;28;20049;-75
2023/08/01 08:36:21;;;;;;;0.00;0.00;;;15.70;94.00;;;;;;5007273;28;20174;-73
2023/08/01 08:38:47;;;;;;;0.22;0.22;;;15.80;94.00;;;;;;5006644;28;20041;-73
2023/08/01 08:41:20;;;;;;;0.00;0.00;;;15.80;93.70;;;;;;5002498;28;20502;-73
2023/08/01 08:43:48;;;;;;;0.00;0.00;;;15.80;93.70;;;;;;5005839;28;20052;-72
2023/08/01 08:46:16;;;;;;;0.00;0.00;;;15.90;93.80;;;;;;5003212;28;20125;-72
2023/08/01 08:48:44;;;;;;;0.00;0.00;;;16.00;93.00;;;;;;5006766;28;20108;-71
2023/08/01 08:51:10;;;;;;;0.32;0.32;;;16.00;92.80;;;;;;5007242;28;20041;-71
2023/08/01 08:53:36;;;;;;;0.20;0.20;;;16.00;92.90;;;;;;5007868;28;20088;-72
2023/08/01 08:56:02;;;;;;;0.00;0.00;;;16.00;93.00;;;;;;5007038;28;20085;-72
2023/08/01 08:58:31;;;;;;;0.00;0.00;;;16.00;93.10;;;;;;5007659;28;20042;-72
2023/08/01 09:01:00;;;;;;;0.00;0.00;;;16.10;93.20;;;;;;5007577;28;20667;-72
2023/08/01 09:03:26;;;;;;;0.15;0.15;;;16.10;93.20;;;;;;5007175;28;20041;-72
2023/08/01 09:05:59;;;;;;;0.00;0.00;;;16.30;93.30;;;;;;5007205;28;20088;-74
2023/08/01 09:08:29;;;;;;;0.00;0.00;;;16.30;93.20;;;;;;5003300;28;20058;-74
2023/08/01 09:10:55;;;;;;;0.00;0.00;;;16.40;93.20;;;;;;5004762;28;20140;-74
2023/08/01 09:13:21;;;;;;;0.00;0.00;;;16.50;93.20;;;;;;5004783;28;20553;-74
2023/08/01 09:15:47;;;;;;;0.73;0.40;;;16.60;93.30;;;;;;5006972;28;20080;-74
2023/08/01 09:18:12;;;;;;;0.00;0.00;;;16.70;93.20;;;;;;5005654;28;20078;-74
2023/08/01 09:20:46;;;;;;;0.00;0.00;;;16.70;91.80;;;;;;5006378;28;20514;-73
2023/08/01 09:23:12;;;;;;;0.00;0.00;;;16.70;91.30;;;;;;5006804;28;20073;-74
2023/08/01 09:25:39;;;;;;;0.00;0.00;;;16.70;91.10;;;;;;5006651;28;20045;-74
2023/08/01 09:28:22;;;;;;;0.00;0.00;;;16.80;90.40;;;;;;5007808;28;20046;-74
2023/08/01 09:30:55;;;;;;;0.10;0.10;;;16.80;90.60;;;;;;5007336;28;20038;-72
2023/08/01 09:33:21;;;;;;;2.75;1.95;;;17.10;90.90;;;;;;5006009;28;20145;-73
2023/08/01 09:35:48;;;;;;;0.00;0.00;;;17.30;90.70;;;;;;5007138;28;20128;-74
2023/08/01 09:38:15;;;;;;;0.00;0.00;;;17.30;90.80;;;;;;5005932;28;20046;-74
2023/08/01 09:40:42;;;;;;;0.00;0.00;;;17.40;89.30;;;;;;5006432;28;20044;-74
2023/08/01 09:43:07;;;;;;;0.00;0.00;;;17.30;87.90;;;;;;5006616;28;20045;-74
2023/08/01 09:45:34;;;;;;;0.05;0.05;;;17.30;86.90;;;;;;5006959;28;20379;-74
2023/08/01 09:48:00;;;;;;;0.00;0.00;;;17.30;87.00;;;;;;5006690;28;20247;-74
2023/08/01 09:50:26;;;;;;;0.13;0.13;;;17.40;87.80;;;;;;5007411;28;20054;-75
2023/08/01 09:52:52;;;;;;;0.05;0.05;;;17.60;88.00;;;;;;5007010;28;20046;-75
2023/08/01 09:55:32;;;;;;;0.00;0.00;;;17.60;87.40;;;;;;5006477;28;20068;-72
2023/08/01 09:57:59;;;;;;;0.00;0.00;;;17.60;84.60;;;;;;5004647;28;20085;-73
2023/08/01 10:00:29;;;;;;;0.00;0.00;;;17.60;84.80;;;;;;5004989;28;20037;-73
2023/08/01 10:02:59;;;;;;;0.10;0.10;;;17.60;85.80;;;;;;5005658;28;20076;-73
2023/08/01 10:05:31;;;;;;;0.00;0.00;;;17.60;86.00;;;;;;5006604;28;20054;-73
2023/08/01 10:08:02;;;;;;;0.90;0.90;;;17.60;86.40;;;;;;5006769;28;20057;-74
2023/08/01 10:10:28;;;;;;;1.38;1.00;;;17.70;83.40;;;;;;5006673;28;20056;-74
2023/08/01 10:12:57;;;;;;;0.00;0.00;;;17.70;83.10;;;;;;5005026;28;20068;-74
2023/08/01 10:15:28;;;;;;;0.40;0.40;;;17.80;83.70;;;;;;5005478;28;20050;-74
2023/08/01 10:17:53;;;;;;;0.43;0.40;;;17.70;84.50;;;;;;5007339;28;20076;-74
2023/08/01 10:20:21;;;;;;;0.00;0.00;;;17.80;83.00;;;;;;5005779;28;20045;-75
2023/08/01 10:22:49;;;;;;;0.00;0.00;;;17.80;83.80;;;;;;5006789;28;20079;-74
2023/08/01 10:25:16;;;;;;;0.00;0.00;;;17.80;83.70;;;;;;5005285;28;20060;-75
2023/08/01 10:27:42;;;;;;;0.00;0.00;;;17.90;84.00;;;;;;5006195;28;21345;-75
2023/08/01 10:30:09;;;;;;;0.00;0.00;;;18.00;83.90;;;;;;5005809;28;20125;-76
2023/08/01 10:32:37;;;;;;;0.00;0.00;;;18.00;82.30;;;;;;5005270;28;20045;-75
2023/08/01 10:35:03;;;;;;;0.00;0.00;;;18.00;82.60;;;;;;5006829;28;20046;-74
2023/08/01 10:37:49;;;;;;;0.00;0.00;;;18.00;81.90;;;;;;5006135;28;20050;-75
2023/08/01 10:40:14;;;;;;;0.00;0.00;;;17.90;82.00;;;;;;5006898;28;20050;-75
2023/08/01 10:42:45;;;;;;;0.10;0.10;;;18.00;81.90;;;;;;5005459;28;20042;-75
2023/08/01 10:45:21;;;;;;;0.00;0.00;;;18.10;82.40;;;;;;5005784;28;20042;-75
2023/08/01 10:47:49;;;;;;;0.00;0.00;;;18.20;82.20;;;;;;5006003;28;20050;-75
2023/08/01 10:50:15;;;;;;;0.00;0.00;;;18.20;82.20;;;;;;5009181;28;20096;-75
2023/08/01 10:52:41;;;;;;;0.00;0.00;;;18.30;81.80;;;;;;5010124;28;20494;-74
2023/08/01 10:55:07;;;;;;;0.00;0.00;;;18.30;81.60;;;;;;5006563;28;20042;-75
2023/08/01 10:57:36;;;;;;;0.00;0.00;;;18.10;80.50;;;;;;5008420;28;20042;-75
2023/08/01 11:00:09;;;;;;;0.00;0.00;;;18.10;80.80;;;;;;5009608;28;20049;-75
2023/08/01 11:02:34;;;;;;;0.75;0.75;;;18.00;81.90;;;;;;5006378;28;20176;-76
2023/08/01 11:05:02;;;;;;;0.03;0.03;;;18.00;82.10;;;;;;5009443;28;20133;-79
2023/08/01 11:07:28;;;;;;;0.40;0.20;;;18.10;82.30;;;;;;5009655;28;20073;-77
2023/08/01 11:10:10;;;;;;;0.00;0.00;;;18.20;82.90;;;;;;5006953;28;20604;-77
2023/08/01 11:12:37;;;;;;;0.00;0.00;;;18.30;82.00;;;;;;5008651;28;20533;-76
2023/08/01 11:15:09;;;;;;;0.00;0.00;;;18.30;80.60;;;;;;5007459;28;20042;-76
2023/08/01 11:17:48;;;;;;;0.00;0.00;;;18.40;79.20;;;;;;5009317;28;20532;-75
2023/08/01 11:20:13;;;;;;;0.00;0.00;;;18.50;79.10;;;;;;5008661;28;20469;-76
2023/08/01 11:22:52;;;;;;;0.28;0.28;;;18.50;78.80;;;;;;5007834;28;20046;-75
2023/08/01 11:25:18;;;;;;;0.00;0.00;;;18.70;79.30;;;;;;5008088;28;20147;-75
2023/08/01 11:27:44;;;;;;;0.00;0.00;;;18.60;79.10;;;;;;5008668;28;20060;-76
2023/08/01 11:30:10;;;;;;;0.10;0.10;;;18.50;78.30;;;;;;5009538;28;20445;-76
2023/08/01 11:32:38;;;;;;;0.00;0.00;;;18.30;78.80;;;;;;5005913;28;20410;-74
2023/08/01 11:35:04;;;;;;;0.00;0.00;;;18.10;79.80;;;;;;5008308;28;20061;-74
2023/08/01 11:37:30;;;;;;;0.00;0.00;;;18.10;80.70;;;;;;5008225;28;20074;-74
2023/08/01 11:39:57;;;;;;;0.00;0.00;;;18.10;80.90;;;;;;5008620;28;20067;-74
2023/08/01 11:42:23;;;;;;;4.90;0.85;;;18.20;80.50;;;;;;5009064;28;20542;-75
2023/08/01 11:44:48;;;;;;;0.00;0.00;;;18.40;79.80;;;;;;5008378;28;20120;-74
2023/08/01 11:47:16;;;;;;;0.30;0.30;;;18.40;78.90;;;;;;5008159;28;20042;-74
2023/08/01 11:49:49;;;;;;;0.52;0.45;;;18.50;79.30;;;;;;5009209;28;20053;-74
2023/08/01 11:52:25;;;;;;;0.10;0.10;;;18.50;79.20;;;;;;5008548;28;20046;-74
2023/08/01 11:54:51;;;;;;;0.40;0.40;;;18.40;79.50;;;;;;5008133;28;20128;-75
2023/08/01 11:57:16;;;;;;;0.35;0.35;;;18.40;79.70;;;;;;5008922;28;20161;-75
2023/08/01 12:00:09;;;;;;;0.00;0.00;;;18.60;79.90;;;;;;5008197;28;20545;-75
2023/08/01 12:02:34;;;;;;;0.13;0.13;;;18.50;79.80;;;;;;5002829;28;20050;-75
2023/08/01 12:05:00;;;;;;;1.45;1.35;;;18.60;80.40;;;;;;5005853;28;20061;-75
2023/08/01 12:07:26;;;;;;;0.00;0.00;;;18.60;81.50;;;;;;5008474;28;20396;-75
2023/08/01 12:09:58;;;;;;;0.00;0.00;;;18.40;82.30;;;;;;5007555;28;20486;-75
2023/08/01 12:12:27;;;;;;;0.00;0.00;;;18.20;82.50;;;;;;5008190;28;20462;-75
2023/08/01 12:14:52;;;;;;;0.00;0.00;;;18.10;83.00;;;;;;5006456;28;20088;-74
2023/08/01 12:17:18;;;;;;;0.00;0.00;;;18.20;83.20;;;;;;5005671;28;20050;-75
2023/08/01 12:19:45;;;;;;;0.00;0.00;;;18.20;83.50;;;;;;5008968;28;20570;-75
2023/08/01 12:22:11;;;;;;;11.13;0.57;;;18.50;84.40;;;;;;5008745;28;20454;-75
2023/08/01 12:24:37;;;;;;;0.00;0.00;;;18.60;83.50;;;;;;5008568;28;20073;-74
2023/08/01 12:27:06;;;;;;;1.08;0.98;;;18.50;82.90;;;;;;5008984;28;20052;-74
2023/08/01 12:29:31;;;;;;;0.00;0.00;;;18.30;83.60;;;;;;5008300;28;20057;-74
2023/08/01 12:31:57;;;;;;;0.00;0.00;;;17.90;85.00;;;;;;5008438;28;20053;-74
2023/08/01 12:34:22;;;;;;;0.00;0.00;;;17.80;86.10;;;;;;5008010;28;20078;-75
2023/08/01 12:36:48;;;;;;;0.00;0.00;;;17.80;86.20;;;;;;5007215;28;20076;-74
2023/08/01 12:39:13;;;;;;;0.00;0.00;;;17.90;86.50;;;;;;5006821;28;20037;-74
2023/08/01 12:41:39;;;;;;;0.08;0.08;;;18.00;86.70;;;;;;5008794;28;20050;-74
2023/08/01 12:44:05;;;;;;;0.00;0.00;;;18.00;86.50;;;;;;5007822;28;20052;-74